Aérodrome :
LOGIN :

S'inscrire | Disclaimer

   EN    FR    IT 

 










Légende :    VFR   VFR Marginal   IFR   IFR Intensif   IFR Très Intensif
Visi : 
Plafond : 
>= 8 km
>= 3000ft
5 à 8 km
1000 à 3000 ft
1500m à 5 km
500 à 1000 ft
800 à 1500m
200 à 500 ft
< 800m
< 200 ft
Symboles :   Orages  Brouillard  Fortes neiges  Fortes précipitations  Vent > 20 kt
SIGMETs :   Divers  Orages  Givrage  Turbulence  Onde Orograph.  Cendres Volcan.







- Altitude de l'aérodrome : 106 ft
- Code IATA : NRN


EDLV - Weeze

DERNIER METAR :
  • 230720Z 16010KT CAVOK 13/05 Q0997

METARs EXPIRÉS :
  • 230650Z 16011KT CAVOK 13/05 Q0997
  • 230620Z 16010KT CAVOK 13/05 Q0997
  • 230550Z 16009KT 130V190 CAVOK 12/05 Q0997
  • 230520Z 16011KT CAVOK 12/04 Q0997
  • 230450Z 17011KT CAVOK 12/04 Q0998
  • 230420Z 17011KT 140V200 CAVOK 11/04 Q0998

TAF TAF EDLV
Valide du 23 à 06h jusqu'au 24 à 06h UTC


230500Z 2306/2406 18013KT 9999 SCT030
BECMG 2306/2309 21015G25KT
PROB30
TEMPO 2309/2313 21020G30KT
BECMG 2313/2316 23013KT
BECMG 2316/2320 21008KT
TEMPO 2403/2406 4500 RA BKN012
Pas de NOTAMs connus pour ce terrain.
1 SIGMET publié pour la FIR Langen (EDGG) :
 
Turbulence forte
EDGG SIGMET 1 VALID 230645/231000 EDZF
EDGG LANGEN FIR SEV TURB FCST APRX 80NM WID LINE BTN N4912 E00644 - N5116 E01021 2000FT/5000FT STNR NC=



MET'MAP, la Météo Aéronautique d'un coup d'oeil ! - Copyright ORBIFLY Décembre 2007 - Disclaimer

ORBIFLY MET'MAP TEAM :

Programmation & Développement : Alexandra Zaïnal
Conception & Développement : Baudouin d'Aumeries
Co-Programmation & Développement : Marc-Olivier Méhu
Soutien technique & logistique : Manuel Goepfert

Contact : metmap@orbifly.com




SOURCES & CREDITS :

   NOAA